sensor_id;sensor_type;location;lat;lon;timestamp;pressure;altitude;pressure_sealevel;temperature;humidity
69971;BME280;57301;50.328;8.542;2022-08-19T00:01:28;98149.00;;;18.94;75.68
69971;BME280;57301;50.328;8.542;2022-08-19T00:04:01;98149.22;;;18.93;75.90
69971;BME280;57301;50.328;8.542;2022-08-19T00:06:30;98151.88;;;18.99;75.91
69971;BME280;57301;50.328;8.542;2022-08-19T00:08:58;98145.00;;;19.03;75.69
69971;BME280;57301;50.328;8.542;2022-08-19T00:11:26;98146.81;;;19.16;75.30
69971;BME280;57301;50.328;8.542;2022-08-19T00:13:55;98144.88;;;19.23;75.09
69971;BME280;57301;50.328;8.542;2022-08-19T00:16:24;98152.22;;;19.16;75.32
69971;BME280;57301;50.328;8.542;2022-08-19T00:18:53;98157.63;;;18.71;76.94
69971;BME280;57301;50.328;8.542;2022-08-19T00:21:19;98158.41;;;18.85;76.70
69971;BME280;57301;50.328;8.542;2022-08-19T00:23:46;98162.88;;;19.04;75.60
69971;BME280;57301;50.328;8.542;2022-08-19T00:26:14;98163.03;;;19.16;75.37
69971;BME280;57301;50.328;8.542;2022-08-19T00:28:40;98150.34;;;19.17;75.13
69971;BME280;57301;50.328;8.542;2022-08-19T00:31:08;98155.13;;;19.15;75.31
69971;BME280;57301;50.328;8.542;2022-08-19T00:33:35;98150.94;;;19.19;74.15
69971;BME280;57301;50.328;8.542;2022-08-19T00:36:04;98148.88;;;19.14;75.41
69971;BME280;57301;50.328;8.542;2022-08-19T00:38:34;98138.44;;;19.24;74.99
69971;BME280;57301;50.328;8.542;2022-08-19T00:41:06;98135.47;;;19.32;75.01
69971;BME280;57301;50.328;8.542;2022-08-19T00:43:34;98128.03;;;19.28;75.16
69971;BME280;57301;50.328;8.542;2022-08-19T00:46:01;98130.56;;;19.23;75.34
69971;BME280;57301;50.328;8.542;2022-08-19T00:48:32;98133.97;;;19.05;75.65
69971;BME280;57301;50.328;8.542;2022-08-19T00:51:00;98132.63;;;18.83;76.20
69971;BME280;57301;50.328;8.542;2022-08-19T00:53:28;98125.28;;;19.03;76.35
69971;BME280;57301;50.328;8.542;2022-08-19T00:55:59;98116.41;;;19.21;75.74
69971;BME280;57301;50.328;8.542;2022-08-19T00:58:30;98116.56;;;19.26;75.38
69971;BME280;57301;50.328;8.542;2022-08-19T01:01:01;98124.19;;;19.11;75.62
69971;BME280;57301;50.328;8.542;2022-08-19T01:03:28;98119.66;;;19.04;74.87
69971;BME280;57301;50.328;8.542;2022-08-19T01:06:15;98115.25;;;19.10;75.07
69971;BME280;57301;50.328;8.542;2022-08-19T01:08:46;98107.03;;;18.92;75.75
69971;BME280;57301;50.328;8.542;2022-08-19T01:11:15;98104.22;;;19.12;75.20
69971;BME280;57301;50.328;8.542;2022-08-19T01:13:42;98103.28;;;19.24;75.05
69971;BME280;57301;50.328;8.542;2022-08-19T01:16:16;98106.50;;;19.08;75.30
69971;BME280;57301;50.328;8.542;2022-08-19T01:18:44;98103.75;;;19.15;75.29
69971;BME280;57301;50.328;8.542;2022-08-19T01:21:31;98112.44;;;19.23;75.03
69971;BME280;57301;50.328;8.542;2022-08-19T01:23:59;98096.66;;;19.20;75.36
69971;BME280;57301;50.328;8.542;2022-08-19T01:26:26;98096.59;;;19.27;75.32
69971;BME280;57301;50.328;8.542;2022-08-19T01:28:55;98097.47;;;19.27;75.30
69971;BME280;57301;50.328;8.542;2022-08-19T01:31:27;98100.59;;;18.93;76.49
69971;BME280;57301;50.328;8.542;2022-08-19T01:33:58;98100.28;;;19.08;76.08
69971;BME280;57301;50.328;8.542;2022-08-19T01:36:35;98097.47;;;19.27;75.49
69971;BME280;57301;50.328;8.542;2022-08-19T01:39:06;98101.06;;;19.15;75.63
69971;BME280;57301;50.328;8.542;2022-08-19T01:41:33;98087.88;;;19.25;74.68
69971;BME280;57301;50.328;8.542;2022-08-19T01:44:00;98090.66;;;19.18;74.29
69971;BME280;57301;50.328;8.542;2022-08-19T01:46:46;98087.50;;;18.90;75.17
69971;BME280;57301;50.328;8.542;2022-08-19T01:49:15;98086.47;;;18.91;75.51
69971;BME280;57301;50.328;8.542;2022-08-19T01:51:42;98084.88;;;19.08;75.45
69971;BME280;57301;50.328;8.542;2022-08-19T01:54:12;98081.72;;;19.18;74.95
69971;BME280;57301;50.328;8.542;2022-08-19T01:56:50;98094.16;;;19.19;74.87
69971;BME280;57301;50.328;8.542;2022-08-19T01:59:19;98087.66;;;19.26;74.07
69971;BME280;57301;50.328;8.542;2022-08-19T02:01:46;98088.63;;;19.39;73.13
69971;BME280;57301;50.328;8.542;2022-08-19T02:04:13;98097.22;;;19.29;73.21
69971;BME280;57301;50.328;8.542;2022-08-19T02:06:40;98102.19;;;19.32;73.02
69971;BME280;57301;50.328;8.542;2022-08-19T02:09:07;98098.28;;;19.53;72.64
69971;BME280;57301;50.328;8.542;2022-08-19T02:11:35;98089.56;;;19.51;72.34
69971;BME280;57301;50.328;8.542;2022-08-19T02:14:05;98090.16;;;19.59;71.99
69971;BME280;57301;50.328;8.542;2022-08-19T02:16:32;98089.09;;;19.61;71.73
69971;BME280;57301;50.328;8.542;2022-08-19T02:18:59;98109.13;;;19.53;71.97
69971;BME280;57301;50.328;8.542;2022-08-19T02:21:29;98104.50;;;19.60;71.60
69971;BME280;57301;50.328;8.542;2022-08-19T02:23:56;98105.63;;;19.46;72.12
69971;BME280;57301;50.328;8.542;2022-08-19T02:26:23;98110.59;;;19.49;72.11
69971;BME280;57301;50.328;8.542;2022-08-19T02:28:51;98117.09;;;19.41;71.90
69971;BME280;57301;50.328;8.542;2022-08-19T02:31:20;98115.06;;;19.37;71.32
69971;BME280;57301;50.328;8.542;2022-08-19T02:33:47;98115.66;;;19.39;71.28
69971;BME280;57301;50.328;8.542;2022-08-19T02:36:16;98123.25;;;19.23;71.24
69971;BME280;57301;50.328;8.542;2022-08-19T02:38:46;98127.25;;;19.14;71.55
69971;BME280;57301;50.328;8.542;2022-08-19T02:41:23;98120.84;;;19.15;71.77
69971;BME280;57301;50.328;8.542;2022-08-19T02:43:55;98134.69;;;19.25;71.30
69971;BME280;57301;50.328;8.542;2022-08-19T02:46:45;98134.41;;;19.02;71.96
69971;BME280;57301;50.328;8.542;2022-08-19T02:49:13;98131.50;;;19.03;72.08
69971;BME280;57301;50.328;8.542;2022-08-19T02:51:44;98131.63;;;18.77;73.08
69971;BME280;57301;50.328;8.542;2022-08-19T02:54:11;98126.78;;;18.92;72.59
69971;BME280;57301;50.328;8.542;2022-08-19T02:56:40;98125.09;;;18.98;72.63
69971;BME280;57301;50.328;8.542;2022-08-19T02:59:07;98111.94;;;19.01;72.42
69971;BME280;57301;50.328;8.542;2022-08-19T03:01:38;98121.94;;;19.01;72.06
69971;BME280;57301;50.328;8.542;2022-08-19T03:04:09;98122.38;;;18.98;72.15
69971;BME280;57301;50.328;8.542;2022-08-19T03:06:38;98124.50;;;18.89;73.03
69971;BME280;57301;50.328;8.542;2022-08-19T03:09:04;98127.00;;;18.84;72.94
69971;BME280;57301;50.328;8.542;2022-08-19T03:11:32;98134.44;;;18.95;72.88
69971;BME280;57301;50.328;8.542;2022-08-19T03:13:59;98124.13;;;18.86;73.43
69971;BME280;57301;50.328;8.542;2022-08-19T03:16:28;98129.19;;;18.56;74.10
69971;BME280;57301;50.328;8.542;2022-08-19T03:18:59;98128.06;;;18.83;73.37
69971;BME280;57301;50.328;8.542;2022-08-19T03:21:29;98119.34;;;18.81;73.30
69971;BME280;57301;50.328;8.542;2022-08-19T03:23:57;98117.25;;;18.83;73.01
69971;BME280;57301;50.328;8.542;2022-08-19T03:26:24;98119.59;;;18.73;73.55
69971;BME280;57301;50.328;8.542;2022-08-19T03:28:50;98117.53;;;18.68;73.86
69971;BME280;57301;50.328;8.542;2022-08-19T03:31:25;98112.13;;;18.68;73.82
69971;BME280;57301;50.328;8.542;2022-08-19T03:34:16;98118.38;;;18.62;74.08
69971;BME280;57301;50.328;8.542;2022-08-19T03:36:47;98121.66;;;18.71;73.91
69971;BME280;57301;50.328;8.542;2022-08-19T03:39:14;98122.13;;;18.68;73.91
69971;BME280;57301;50.328;8.542;2022-08-19T03:41:43;98127.91;;;18.65;74.20
69971;BME280;57301;50.328;8.542;2022-08-19T03:44:13;98134.13;;;18.65;74.28
69971;BME280;57301;50.328;8.542;2022-08-19T03:46:48;98132.47;;;18.71;74.03
69971;BME280;57301;50.328;8.542;2022-08-19T03:49:16;98132.25;;;18.66;74.28
69971;BME280;57301;50.328;8.542;2022-08-19T03:51:44;98125.44;;;18.70;74.17
69971;BME280;57301;50.328;8.542;2022-08-19T03:54:13;98131.28;;;18.60;74.59
69971;BME280;57301;50.328;8.542;2022-08-19T03:56:41;98138.97;;;18.57;74.79
69971;BME280;57301;50.328;8.542;2022-08-19T03:59:11;98154.97;;;18.51;74.85
69971;BME280;57301;50.328;8.542;2022-08-19T04:01:38;98150.84;;;18.42;75.36
69971;BME280;57301;50.328;8.542;2022-08-19T04:04:05;98156.28;;;18.36;75.44
69971;BME280;57301;50.328;8.542;2022-08-19T04:06:35;98146.91;;;18.38;75.58
69971;BME280;57301;50.328;8.542;2022-08-19T04:09:08;98151.75;;;18.10;76.67
69971;BME280;57301;50.328;8.542;2022-08-19T04:11:39;98151.34;;;17.99;77.37
69971;BME280;57301;50.328;8.542;2022-08-19T04:14:13;98152.41;;;17.98;77.53
69971;BME280;57301;50.328;8.542;2022-08-19T04:16:40;98153.59;;;18.09;77.00
69971;BME280;57301;50.328;8.542;2022-08-19T04:19:07;98159.63;;;17.98;77.47
69971;BME280;57301;50.328;8.542;2022-08-19T04:21:34;98142.44;;;17.99;77.33
69971;BME280;57301;50.328;8.542;2022-08-19T04:24:01;98154.47;;;17.96;77.30
69971;BME280;57301;50.328;8.542;2022-08-19T04:26:32;98153.66;;;17.83;77.97
69971;BME280;57301;50.328;8.542;2022-08-19T04:29:02;98159.25;;;17.81;78.08
69971;BME280;57301;50.328;8.542;2022-08-19T04:31:31;98152.59;;;17.84;78.06
69971;BME280;57301;50.328;8.542;2022-08-19T04:34:00;98149.69;;;17.98;77.85
69971;BME280;57301;50.328;8.542;2022-08-19T04:36:31;98149.03;;;18.10;77.20
69971;BME280;57301;50.328;8.542;2022-08-19T04:39:02;98147.19;;;17.90;77.58
69971;BME280;57301;50.328;8.542;2022-08-19T04:41:29;98150.94;;;17.83;78.29
69971;BME280;57301;50.328;8.542;2022-08-19T04:44:14;98153.63;;;17.89;78.44
69971;BME280;57301;50.328;8.542;2022-08-19T04:46:49;98153.41;;;17.64;79.23
69971;BME280;57301;50.328;8.542;2022-08-19T04:49:19;98157.53;;;17.54;79.93
69971;BME280;57301;50.328;8.542;2022-08-19T04:51:48;98157.16;;;17.63;79.67
69971;BME280;57301;50.328;8.542;2022-08-19T04:54:17;98160.47;;;17.59;80.00
69971;BME280;57301;50.328;8.542;2022-08-19T04:57:03;98156.56;;;17.81;79.12
69971;BME280;57301;50.328;8.542;2022-08-19T04:59:32;98155.91;;;18.06;77.99
69971;BME280;57301;50.328;8.542;2022-08-19T05:01:59;98162.16;;;17.93;78.77
69971;BME280;57301;50.328;8.542;2022-08-19T05:04:26;98159.84;;;17.70;79.72
69971;BME280;57301;50.328;8.542;2022-08-19T05:06:54;98155.53;;;17.82;79.74
69971;BME280;57301;50.328;8.542;2022-08-19T05:09:26;98155.91;;;17.86;79.31
69971;BME280;57301;50.328;8.542;2022-08-19T05:12:01;98160.09;;;17.75;79.76
69971;BME280;57301;50.328;8.542;2022-08-19T05:14:28;98175.00;;;17.71;80.39
69971;BME280;57301;50.328;8.542;2022-08-19T05:16:55;98182.50;;;17.82;79.86
69971;BME280;57301;50.328;8.542;2022-08-19T05:19:41;98177.50;;;17.72;80.13
69971;BME280;57301;50.328;8.542;2022-08-19T05:22:26;98181.44;;;18.03;79.33
69971;BME280;57301;50.328;8.542;2022-08-19T05:25:06;98182.69;;;17.87;79.68
69971;BME280;57301;50.328;8.542;2022-08-19T05:27:40;98173.34;;;18.03;79.22
69971;BME280;57301;50.328;8.542;2022-08-19T05:30:07;98164.56;;;18.34;78.18
69971;BME280;57301;50.328;8.542;2022-08-19T05:32:34;98169.78;;;18.94;75.75
69971;BME280;57301;50.328;8.542;2022-08-19T05:35:01;98173.78;;;19.86;72.51
69971;BME280;57301;50.328;8.542;2022-08-19T05:37:27;98173.03;;;20.84;68.83
69971;BME280;57301;50.328;8.542;2022-08-19T05:39:54;98167.75;;;21.79;65.46
69971;BME280;57301;50.328;8.542;2022-08-19T05:42:21;98164.88;;;23.20;60.33
69971;BME280;57301;50.328;8.542;2022-08-19T05:44:49;98170.88;;;23.96;57.04
69971;BME280;57301;50.328;8.542;2022-08-19T05:47:17;98175.38;;;24.41;55.02
69971;BME280;57301;50.328;8.542;2022-08-19T05:49:46;98176.03;;;24.86;54.12
69971;BME280;57301;50.328;8.542;2022-08-19T05:52:14;98170.97;;;25.17;53.13
69971;BME280;57301;50.328;8.542;2022-08-19T05:54:45;98164.00;;;25.58;52.01
69971;BME280;57301;50.328;8.542;2022-08-19T05:57:17;98171.53;;;26.05;49.81
69971;BME280;57301;50.328;8.542;2022-08-19T05:59:44;98178.94;;;26.42;49.14
69971;BME280;57301;50.328;8.542;2022-08-19T06:02:12;98182.78;;;26.46;49.18
69971;BME280;57301;50.328;8.542;2022-08-19T06:04:40;98187.59;;;26.76;48.28
69971;BME280;57301;50.328;8.542;2022-08-19T06:07:09;98187.34;;;27.55;46.37
69971;BME280;57301;50.328;8.542;2022-08-19T06:09:37;98196.44;;;28.17;44.88
69971;BME280;57301;50.328;8.542;2022-08-19T06:12:04;98188.38;;;28.87;43.13
69971;BME280;57301;50.328;8.542;2022-08-19T06:14:33;98188.06;;;29.58;41.53
69971;BME280;57301;50.328;8.542;2022-08-19T06:17:05;98192.44;;;29.64;40.68
69971;BME280;57301;50.328;8.542;2022-08-19T06:19:33;98191.66;;;28.99;41.90
69971;BME280;57301;50.328;8.542;2022-08-19T06:22:06;98194.78;;;28.52;43.38
69971;BME280;57301;50.328;8.542;2022-08-19T06:24:33;98189.31;;;28.21;44.03
69971;BME280;57301;50.328;8.542;2022-08-19T06:27:00;98201.16;;;28.32;44.09
69971;BME280;57301;50.328;8.542;2022-08-19T06:29:28;98201.69;;;28.19;43.94
69971;BME280;57301;50.328;8.542;2022-08-19T06:31:57;98218.91;;;27.73;45.04
69971;BME280;57301;50.328;8.542;2022-08-19T06:34:25;98223.59;;;27.98;44.38
69971;BME280;57301;50.328;8.542;2022-08-19T06:36:54;98234.81;;;27.87;44.68
69971;BME280;57301;50.328;8.542;2022-08-19T06:39:25;98236.97;;;27.64;45.01
69971;BME280;57301;50.328;8.542;2022-08-19T06:41:56;98239.41;;;27.66;45.31
69971;BME280;57301;50.328;8.542;2022-08-19T06:44:26;98221.66;;;27.83;45.13
69971;BME280;57301;50.328;8.542;2022-08-19T06:46:54;98218.94;;;28.09;44.32
69971;BME280;57301;50.328;8.542;2022-08-19T06:49:22;98225.50;;;28.23;43.89
69971;BME280;57301;50.328;8.542;2022-08-19T06:51:49;98224.16;;;28.31;43.96
69971;BME280;57301;50.328;8.542;2022-08-19T06:54:18;98237.28;;;28.80;42.76
69971;BME280;57301;50.328;8.542;2022-08-19T06:56:49;98231.66;;;29.26;42.14
69971;BME280;57301;50.328;8.542;2022-08-19T06:59:18;98243.84;;;29.64;41.26
69971;BME280;57301;50.328;8.542;2022-08-19T07:01:50;98229.19;;;30.18;39.83
69971;BME280;57301;50.328;8.542;2022-08-19T07:04:20;98225.41;;;30.43;39.16
69971;BME280;57301;50.328;8.542;2022-08-19T07:06:47;98229.06;;;31.15;37.59
69971;BME280;57301;50.328;8.542;2022-08-19T07:09:21;98222.41;;;31.16;37.48
69971;BME280;57301;50.328;8.542;2022-08-19T07:11:50;98234.91;;;31.09;37.95
69971;BME280;57301;50.328;8.542;2022-08-19T07:14:22;98235.06;;;31.17;37.85
69971;BME280;57301;50.328;8.542;2022-08-19T07:16:50;98237.66;;;31.56;37.13
69971;BME280;57301;50.328;8.542;2022-08-19T07:19:18;98231.34;;;31.94;35.95
69971;BME280;57301;50.328;8.542;2022-08-19T07:21:47;98225.63;;;32.04;36.02
69971;BME280;57301;50.328;8.542;2022-08-19T07:24:15;98225.25;;;31.54;36.17
69971;BME280;57301;50.328;8.542;2022-08-19T07:26:43;98232.28;;;31.65;36.59
69971;BME280;57301;50.328;8.542;2022-08-19T07:29:11;98237.44;;;31.91;35.87
69971;BME280;57301;50.328;8.542;2022-08-19T07:31:39;98235.78;;;32.08;35.15
69971;BME280;57301;50.328;8.542;2022-08-19T07:34:11;98239.00;;;31.97;35.18
69971;BME280;57301;50.328;8.542;2022-08-19T07:36:41;98249.44;;;32.00;35.31
69971;BME280;57301;50.328;8.542;2022-08-19T07:39:14;98249.06;;;32.06;35.21
69971;BME280;57301;50.328;8.542;2022-08-19T07:41:42;98245.22;;;32.21;35.09
69971;BME280;57301;50.328;8.542;2022-08-19T07:44:09;98237.44;;;31.91;35.15
69971;BME280;57301;50.328;8.542;2022-08-19T07:46:38;98231.28;;;32.31;34.42
69971;BME280;57301;50.328;8.542;2022-08-19T07:49:06;98230.22;;;32.27;35.17
69971;BME280;57301;50.328;8.542;2022-08-19T07:51:34;98228.88;;;32.44;34.46
69971;BME280;57301;50.328;8.542;2022-08-19T07:54:02;98233.94;;;31.85;34.98
69971;BME280;57301;50.328;8.542;2022-08-19T07:56:29;98232.63;;;31.40;35.66
69971;BME280;57301;50.328;8.542;2022-08-19T07:58:56;98231.34;;;31.32;36.50
69971;BME280;57301;50.328;8.542;2022-08-19T08:01:26;98228.47;;;30.70;37.27
69971;BME280;57301;50.328;8.542;2022-08-19T08:03:55;98236.59;;;30.81;36.69
69971;BME280;57301;50.328;8.542;2022-08-19T08:06:41;98237.19;;;29.75;39.21
69971;BME280;57301;50.328;8.542;2022-08-19T08:09:30;98244.91;;;29.68;39.36
69971;BME280;57301;50.328;8.542;2022-08-19T08:14:55;98247.56;;;29.29;40.52
69971;BME280;57301;50.328;8.542;2022-08-19T08:17:24;98240.03;;;29.50;39.66
69971;BME280;57301;50.328;8.542;2022-08-19T08:20:13;98241.97;;;28.59;40.96
69971;BME280;57301;50.328;8.542;2022-08-19T08:22:44;98249.09;;;28.60;41.83
69971;BME280;57301;50.328;8.542;2022-08-19T08:25:29;98256.25;;;28.35;42.18
69971;BME280;57301;50.328;8.542;2022-08-19T08:27:58;98248.53;;;28.17;42.32
69971;BME280;57301;50.328;8.542;2022-08-19T08:30:28;98252.09;;;27.97;42.98
69971;BME280;57301;50.328;8.542;2022-08-19T08:32:58;98262.25;;;27.97;43.29
69971;BME280;57301;50.328;8.542;2022-08-19T08:35:25;98261.16;;;28.03;43.03
69971;BME280;57301;50.328;8.542;2022-08-19T08:37:53;98268.75;;;27.65;43.85
69971;BME280;57301;50.328;8.542;2022-08-19T08:40:26;98271.56;;;27.96;44.18
69971;BME280;57301;50.328;8.542;2022-08-19T08:42:59;98264.72;;;27.88;44.01
69971;BME280;57301;50.328;8.542;2022-08-19T08:45:28;98274.19;;;27.55;44.49
69971;BME280;57301;50.328;8.542;2022-08-19T08:48:19;98267.25;;;27.37;45.31
69971;BME280;57301;50.328;8.542;2022-08-19T08:50:51;98268.34;;;27.36;44.96
69971;BME280;57301;50.328;8.542;2022-08-19T08:53:21;98268.47;;;27.67;44.49
69971;BME280;57301;50.328;8.542;2022-08-19T08:56:02;98271.88;;;28.20;43.18
69971;BME280;57301;50.328;8.542;2022-08-19T08:59:00;98267.50;;;28.34;42.96
69971;BME280;57301;50.328;8.542;2022-08-19T09:01:28;98270.72;;;28.97;41.86
69971;BME280;57301;50.328;8.542;2022-08-19T09:03:56;98278.94;;;29.17;41.21
69971;BME280;57301;50.328;8.542;2022-08-19T09:10:02;98273.78;;;28.85;41.80
69971;BME280;57301;50.328;8.542;2022-08-19T09:12:48;98274.59;;;28.04;43.29
69971;BME280;57301;50.328;8.542;2022-08-19T09:15:28;98271.84;;;27.89;43.86
69971;BME280;57301;50.328;8.542;2022-08-19T09:18:00;98272.97;;;28.24;43.22
69971;BME280;57301;50.328;8.542;2022-08-19T09:20:28;98266.09;;;28.93;42.04
69971;BME280;57301;50.328;8.542;2022-08-19T09:22:54;98253.56;;;29.41;40.53
69971;BME280;57301;50.328;8.542;2022-08-19T09:25:22;98257.88;;;29.62;39.75
69971;BME280;57301;50.328;8.542;2022-08-19T09:27:53;98250.97;;;30.14;39.07
69971;BME280;57301;50.328;8.542;2022-08-19T09:30:31;98252.22;;;30.56;38.37
69971;BME280;57301;50.328;8.542;2022-08-19T09:32:58;98252.38;;;30.99;38.26
69971;BME280;57301;50.328;8.542;2022-08-19T09:35:27;98244.81;;;30.28;38.64
69971;BME280;57301;50.328;8.542;2022-08-19T09:37:55;98247.63;;;29.13;40.68
69971;BME280;57301;50.328;8.542;2022-08-19T09:40:28;98250.50;;;28.37;42.40
69971;BME280;57301;50.328;8.542;2022-08-19T09:42:55;98241.41;;;27.96;43.27
69971;BME280;57301;50.328;8.542;2022-08-19T09:45:23;98237.03;;;28.00;43.04
69971;BME280;57301;50.328;8.542;2022-08-19T09:47:51;98240.88;;;29.45;40.06
69971;BME280;57301;50.328;8.542;2022-08-19T09:50:21;98231.38;;;30.21;38.66
69971;BME280;57301;50.328;8.542;2022-08-19T09:52:47;98230.91;;;30.43;37.23
69971;BME280;57301;50.328;8.542;2022-08-19T09:55:22;98230.56;;;30.20;37.71
69971;BME280;57301;50.328;8.542;2022-08-19T09:57:49;98226.88;;;29.96;38.32
69971;BME280;57301;50.328;8.542;2022-08-19T10:00:16;98230.78;;;29.35;39.22
69971;BME280;57301;50.328;8.542;2022-08-19T10:02:42;98235.59;;;29.04;39.88
69971;BME280;57301;50.328;8.542;2022-08-19T10:05:11;98225.31;;;29.30;40.16
69971;BME280;57301;50.328;8.542;2022-08-19T10:07:56;98229.47;;;29.77;39.68
69971;BME280;57301;50.328;8.542;2022-08-19T10:10:23;98222.19;;;29.96;38.51
69971;BME280;57301;50.328;8.542;2022-08-19T10:12:50;98225.16;;;30.39;38.66
69971;BME280;57301;50.328;8.542;2022-08-19T10:15:16;98232.50;;;30.78;37.32
69971;BME280;57301;50.328;8.542;2022-08-19T10:17:54;98226.06;;;31.12;36.49
69971;BME280;57301;50.328;8.542;2022-08-19T10:20:21;98224.09;;;31.79;34.56
69971;BME280;57301;50.328;8.542;2022-08-19T10:22:49;98224.81;;;32.55;33.22
69971;BME280;57301;50.328;8.542;2022-08-19T10:25:18;98216.31;;;32.51;32.42
69971;BME280;57301;50.328;8.542;2022-08-19T10:27:45;98226.94;;;32.91;32.03
69971;BME280;57301;50.328;8.542;2022-08-19T10:30:16;98222.50;;;33.94;30.03
69971;BME280;57301;50.328;8.542;2022-08-19T10:32:45;98217.44;;;34.33;29.57
69971;BME280;57301;50.328;8.542;2022-08-19T10:35:13;98214.56;;;34.69;29.79
69971;BME280;57301;50.328;8.542;2022-08-19T10:37:47;98215.53;;;34.95;28.64
69971;BME280;57301;50.328;8.542;2022-08-19T10:40:26;98220.31;;;34.05;30.18
69971;BME280;57301;50.328;8.542;2022-08-19T10:42:54;98227.69;;;34.10;29.93
69971;BME280;57301;50.328;8.542;2022-08-19T10:45:23;98216.25;;;34.47;29.47
69971;BME280;57301;50.328;8.542;2022-08-19T10:47:53;98218.94;;;33.58;30.26
69971;BME280;57301;50.328;8.542;2022-08-19T10:50:21;98216.34;;;32.00;32.83
69971;BME280;57301;50.328;8.542;2022-08-19T10:53:08;98231.50;;;30.93;33.40
69971;BME280;57301;50.328;8.542;2022-08-19T10:55:35;98218.88;;;30.34;35.48
69971;BME280;57301;50.328;8.542;2022-08-19T10:58:21;98217.00;;;30.58;34.84
69971;BME280;57301;50.328;8.542;2022-08-19T11:00:57;98213.91;;;30.36;35.07
69971;BME280;57301;50.328;8.542;2022-08-19T11:03:26;98213.75;;;29.83;35.36
69971;BME280;57301;50.328;8.542;2022-08-19T11:06:02;98212.66;;;29.34;36.04
69971;BME280;57301;50.328;8.542;2022-08-19T11:08:29;98211.56;;;30.82;33.81
69971;BME280;57301;50.328;8.542;2022-08-19T11:11:00;98207.03;;;31.96;31.67
69971;BME280;57301;50.328;8.542;2022-08-19T11:13:29;98202.94;;;33.55;28.80
69971;BME280;57301;50.328;8.542;2022-08-19T11:16:07;98203.97;;;33.81;29.55
69971;BME280;57301;50.328;8.542;2022-08-19T11:18:39;98200.53;;;33.12;29.97
69971;BME280;57301;50.328;8.542;2022-08-19T11:21:30;98200.09;;;31.98;31.60
69971;BME280;57301;50.328;8.542;2022-08-19T11:24:18;98194.59;;;30.41;33.86
69971;BME280;57301;50.328;8.542;2022-08-19T11:26:47;98201.47;;;30.09;34.50
69971;BME280;57301;50.328;8.542;2022-08-19T11:29:19;98185.53;;;31.55;32.49
69971;BME280;57301;50.328;8.542;2022-08-19T11:31:49;98187.53;;;32.99;30.98
69971;BME280;57301;50.328;8.542;2022-08-19T11:34:19;98181.19;;;34.20;28.97
69971;BME280;57301;50.328;8.542;2022-08-19T11:36:48;98181.91;;;33.18;30.24
69971;BME280;57301;50.328;8.542;2022-08-19T11:39:18;98181.13;;;32.11;31.26
69971;BME280;57301;50.328;8.542;2022-08-19T11:41:45;98171.84;;;31.31;32.23
69971;BME280;57301;50.328;8.542;2022-08-19T11:44:12;98161.34;;;31.90;31.57
69971;BME280;57301;50.328;8.542;2022-08-19T11:46:41;98155.94;;;32.91;29.23
69971;BME280;57301;50.328;8.542;2022-08-19T11:49:13;98152.97;;;32.87;28.80
69971;BME280;57301;50.328;8.542;2022-08-19T11:51:41;98138.63;;;32.99;29.53
69971;BME280;57301;50.328;8.542;2022-08-19T11:54:10;98155.91;;;31.85;30.22
69971;BME280;57301;50.328;8.542;2022-08-19T11:56:37;98152.69;;;31.59;31.04
69971;BME280;57301;50.328;8.542;2022-08-19T11:59:04;98150.47;;;32.45;31.18
69971;BME280;57301;50.328;8.542;2022-08-19T12:01:31;98137.88;;;33.07;29.97
69971;BME280;57301;50.328;8.542;2022-08-19T12:03:58;98142.28;;;33.22;30.12
69971;BME280;57301;50.328;8.542;2022-08-19T12:06:30;98142.59;;;32.66;29.21
69971;BME280;57301;50.328;8.542;2022-08-19T12:09:00;98135.34;;;33.11;29.61
69971;BME280;57301;50.328;8.542;2022-08-19T12:11:28;98146.25;;;33.44;28.54
69971;BME280;57301;50.328;8.542;2022-08-19T12:14:00;98139.13;;;33.51;28.46
69971;BME280;57301;50.328;8.542;2022-08-19T12:16:28;98148.84;;;32.11;30.07
69971;BME280;57301;50.328;8.542;2022-08-19T12:18:58;98145.75;;;33.14;28.12
69971;BME280;57301;50.328;8.542;2022-08-19T12:21:31;98133.84;;;33.77;26.89
69971;BME280;57301;50.328;8.542;2022-08-19T12:23:59;98138.72;;;33.80;26.77
69971;BME280;57301;50.328;8.542;2022-08-19T12:26:27;98134.66;;;32.92;27.17
69971;BME280;57301;50.328;8.542;2022-08-19T12:28:54;98144.03;;;32.63;28.05
69971;BME280;57301;50.328;8.542;2022-08-19T12:31:21;98139.91;;;32.47;28.34
69971;BME280;57301;50.328;8.542;2022-08-19T12:33:48;98147.19;;;32.56;28.16
69971;BME280;57301;50.328;8.542;2022-08-19T12:36:15;98142.41;;;32.62;28.20
69971;BME280;57301;50.328;8.542;2022-08-19T12:38:42;98141.16;;;32.68;28.17
69971;BME280;57301;50.328;8.542;2022-08-19T12:41:12;98141.78;;;32.65;28.26
69971;BME280;57301;50.328;8.542;2022-08-19T12:43:39;98140.66;;;33.21;28.15
69971;BME280;57301;50.328;8.542;2022-08-19T12:46:06;98143.28;;;33.99;27.49
69971;BME280;57301;50.328;8.542;2022-08-19T12:48:36;98130.00;;;34.09;26.62
69971;BME280;57301;50.328;8.542;2022-08-19T12:51:14;98132.22;;;33.76;26.74
69971;BME280;57301;50.328;8.542;2022-08-19T12:53:41;98127.75;;;34.42;26.49
69971;BME280;57301;50.328;8.542;2022-08-19T12:56:10;98126.44;;;35.80;24.44
69971;BME280;57301;50.328;8.542;2022-08-19T12:58:38;98122.53;;;35.64;23.56
69971;BME280;57301;50.328;8.542;2022-08-19T13:01:13;98125.75;;;35.31;23.97
69971;BME280;57301;50.328;8.542;2022-08-19T13:03:45;98113.81;;;34.56;24.59
69971;BME280;57301;50.328;8.542;2022-08-19T13:06:12;98117.63;;;36.04;23.39
69971;BME280;57301;50.328;8.542;2022-08-19T13:08:39;98122.53;;;36.92;22.93
69971;BME280;57301;50.328;8.542;2022-08-19T13:11:10;98120.19;;;37.03;22.50
69971;BME280;57301;50.328;8.542;2022-08-19T13:13:40;98109.19;;;37.36;21.94
69971;BME280;57301;50.328;8.542;2022-08-19T13:16:09;98114.56;;;36.52;22.68
69971;BME280;57301;50.328;8.542;2022-08-19T13:18:38;98112.81;;;36.69;22.46
69971;BME280;57301;50.328;8.542;2022-08-19T13:21:07;98123.50;;;35.85;23.88
69971;BME280;57301;50.328;8.542;2022-08-19T13:23:35;98128.56;;;35.48;22.99